Erie, Michigan
Current Conditions -  °F | °C
As of 5:54 PM on Thursday 20 Nov 2014 (Local Time) from KDUH Reporting Station
Broken Clouds Broken Clouds  
Wind Chill: 18°   Ceiling: 5000
Heat Index: 27°   Visibility: 10mi
Dew Point: 12°   Wind: 8mph
Humidity: 55%   Direction: 270°W
Pressure: 30.06"   Gusts: NA
Location:  41.79°N, 83.5°W
Report Text: KDUH 202254Z AUTO 27007KT 10SM BKN050 M03/M11 A3006 RMK AO2
Loading
Personal Weather Stations






























Interactive Weather Map New forecast layout! Learn more

10-Day Weather Forecast

Advertisements
Track Severe Weather on mobile